Zhambyl, Kazakhstan
Current Conditions -  °F | °C
As of 5:00 AM on Friday 19 Dec 2014 (Local Time) from UADD Reporting Station
Clear Clear  
Wind Chill: 25°   Ceiling: Unl
Heat Index: 25°   Visibility: 6mi
Dew Point: 21°   Wind: 2mph
Humidity: 86%   Direction: 190°S
Pressure: 30.18"   Gusts: NA
Location:  42.85°N, 71.38°E
Report Text: UADD 182300Z 19001MPS 9999 NSC M04/M06 Q1022 NOSIG RMKQFE709/0945
Loading
Personal Weather Stations






























Interactive Weather Map New forecast layout! Learn more

10-Day Weather Forecast

Advertisements
Track Severe Weather on mobile